Schedule Details

Flight Number: CPX819
Departure: Daniel K Inouye International Airport (PHNL) at N/A
Arrival: Travis Air Force Base (KSUU) at N/A
Route: MKK4 CLUTS R465 CINNY ROVUE OSVEE1


Current Weather Information
PHNL 152153Z 03010G20KT 010V070 10SM FEW024 SCT046 BKN060 24/15 A2999 RMK AO2 RAB04E37 SLP155 P0000 T02440150
KSUU 152158Z AUTO 22009KT 10SM FEW100 11/05 A2996 RMK AO2 RAB06E22 SLP152 P0000 T01080049 $

Route Map